Report METAR

 

LIPQ - Ronchi Legionari, Italy
Distance from station: SSO 4km
Dati ricevuti: 18/07/2018 12:20
Sereno
Sereno
 Vento da OSO
Vento: OSO 13 km/h
Temperatura: 30°C
Indice di Calore: 31°C
P.to Rugiada: 18°C
Umidità: 49%
Barometro: 1013 hPa
Summary: Sereno
Visibility: superiore a 10 km
2018/07/18 12:20 LIPQ 181220Z 24007KT 200V270 CAVOK 30/18 Q1013
LIVT - Trieste, Italy
Distance from station: SE 27km
Dati ricevuti: 18/07/2018 11:55
Few Clouds
Few Clouds
 Vento da ONO
Vento: ONO 4 km/h
Temperatura: 28°C
Indice di Calore: 30°C
P.to Rugiada: 22°C
Umidità: 70%
Barometro: 1013 hPa
Nuvole: Few Clouds
Visibility: 10 km
Cloud details: Few Clouds 914 m
2018/07/18 11:55 LIVT 181155Z 29002KT 9999 FEW030 28/22 Q1013 RMK FEW QUK 0 QUL 0 VIS MAR 15 KM VIS MIN 9999
 
LIPI - Rivolto (it-Afb), Italy
Distance from station: ONO 37km
Dati ricevuti: 18/07/2018 11:55
Few Clouds
Few Clouds
 Vento da Variabile
Vento: Variabile 0 km/h
Temperatura: 31°C
Indice di Calore: 32°C
P.to Rugiada: 17°C
Umidità: 43%
Barometro: 1013 hPa
Nuvole: Few Clouds
Visibility: 10 km
Cloud details: Few Clouds 1829 m
2018/07/18 11:55 LIPI 181155Z /////KT 9999 FEW060 31/17 Q1013 RMK FEW VIS MIN 9999 WIND THR06 21004KT WIND THR24 20007KT BLU
LJPZ - Portoroz, Slovenia
Distance from station: SSE 43km
Dati ricevuti: 18/07/2018 12:00
Few Clouds
Few Clouds
 Vento da NO
Vento: NO 11 km/h
Temperatura: 30°C
Indice di Calore: 33°C
P.to Rugiada: 21°C
Umidità: 59%
Barometro: 1013 hPa
Nuvole: Few Clouds
Visibility: 10 km
Cloud details: Few Clouds 1524 m
2018/07/18 12:00 LJPZ 181200Z 31006KT 9999 FEW050 30/21 Q1013
 
LIPA - Aviano (it/Us-Af, Italy
Distance from station: ONO 73km
Dati ricevuti: 18/07/2018 11:55
Few Clouds
Few Clouds
 Vento da SSO
Vento: SSO 13 km/h
Temperatura: 29°C
Indice di Calore: 29°C
P.to Rugiada: 18°C
Umidità: 51%
Barometro: 1013 hPa
Nuvole: Few Clouds
Visibility: 10 km
Cloud details: Few Clouds 1524 m
2018/07/18 11:55 LIPA 181155Z 20007KT 9999 FEW050 29/18 Q1013 RMK FEW VIS MIN 9999 WIND THR05 /////KT WIND THR23 /////KT A2993 BLU
LIVO - Tarvisio, Italy
Distance from station: N 73km
Dati ricevuti: 18/07/2018 11:55
Parz. nuvoloso
Parz. nuvoloso
 Vento da ESE
Vento: ESE 4 km/h
Temperatura: 25°C
P.to Rugiada: 12°C
Umidità: 44%
Barometro: 1016 hPa
Nuvole: Parz. nuvoloso
Visibility: 10 km
Cloud details: Parz. nuvoloso 914 m
2018/07/18 11:55 LIVO 181155Z 11002KT 9999 SCT030 25/12 Q1016 RMK SCT VIS MIN 9999
 
LJLJ - Ljubljana/Brnik, Slovenia
Distance from station: ENE 86km
Dati ricevuti: 18/07/2018 12:00
Few Clouds
Few Clouds
 Vento da NO
Vento: NO 13 km/h
Temperatura: 30°C
P.to Rugiada: 13°C
Umidità: 35%
Barometro: 1014 hPa
Nuvole: Few Clouds
Visibility: 10 km
Cloud details: Few Clouds 1981 m
2018/07/18 12:00 LJLJ 181200Z 32007KT 260V040 9999 FEW065 30/13 Q1014 NOSIG
LIPZ - Venezia/Tessera, Italy
Distance from station: OSO 96km
Dati ricevuti: 18/07/2018 12:20
Sereno
Sereno
 Vento da SSE
Vento: SSE 9 km/h
Temperatura: 30°C
Indice di Calore: 31°C
P.to Rugiada: 19°C
Umidità: 52%
Barometro: 1013 hPa
Summary: Sereno
Visibility: superiore a 10 km
2018/07/18 12:20 LIPZ 181220Z 16005KT 120V200 CAVOK 30/19 Q1013 NOSIG
 
LIPH - Treviso(Civ/It-A, Italy
Distance from station: OSO 105km
Dati ricevuti: 18/07/2018 12:20
Sereno
Sereno
 Vento da O
Vento: O 9 km/h
Temperatura: 31°C
Indice di Calore: 32°C
P.to Rugiada: 17°C
Umidità: 43%
Barometro: 1013 hPa
Summary: Sereno
Visibility: superiore a 10 km
2018/07/18 12:20 LIPH 181220Z 26005KT 200V290 CAVOK 31/17 Q1013
LDRI - Rijeka/Omisalj, Croatia
Distance from station: SE 109km
Dati ricevuti: 18/07/2018 12:00
Few Clouds
Few Clouds
 Vento da Variabile
Vento: Variabile 7 km/h
Temperatura: 30°C
Indice di Calore: 30°C
P.to Rugiada: 16°C
Umidità: 43%
Barometro: 1013 hPa
Nuvole: Few Clouds
Visibility: 10 km
Cloud details: Few Clouds 1524 m
2018/07/18 12:00 LDRI 181200Z VRB04KT 9999 FEW050 30/16 Q1013
 
LOWK - Klagenfurt(Civ/M, Austria
Distance from station: NE 110km
Dati ricevuti: 18/07/2018 12:20
Parz. nuvoloso
Parz. nuvoloso
 Vento da ONO
Vento: ONO 15 km/h
Temperatura: 28°C
P.to Rugiada: 9°C
Umidità: 30%
Barometro: 1015 hPa
Nuvole: Parz. nuvoloso
Visibility: 10 km
Cloud details: Parz. nuvoloso 1829 m
Parz. nuvoloso 3353 m
2018/07/18 12:20 LOWK 181220Z 29008KT 220V330 9999 SCT060 SCT110 28/09 Q1015 NOSIG
LIPS - Istrana (it-Afb), Italy
Distance from station: O 111km
Dati ricevuti: 18/07/2018 11:55
Sereno
Sereno
 Vento da O
Vento: O 9 km/h
Temperatura: 31°C
Indice di Calore: 33°C
P.to Rugiada: 19°C
Umidità: 49%
Barometro: 1013 hPa
Summary: Sereno
Visibility: superiore a 10 km
2018/07/18 11:55 LIPS 181155Z 27005KT CAVOK 31/19 Q1013 RMK SKC VIS MIN 9999 WIND THR26 21005KT WIND THR08 25003KT BLU
 
LDPL - Pula, Croatia
Distance from station: SSE 112km
Dati ricevuti: 18/07/2018 12:00
Few Clouds
Few Clouds
 Vento da OSO
Vento: OSO 20 km/h
Temperatura: 30°C
Indice di Calore: 31°C
P.to Rugiada: 18°C
Umidità: 49%
Barometro: 1013 hPa
Nuvole: Few Clouds
Visibility: 10 km
Cloud details: Few Clouds 1067 m
2018/07/18 12:00 LDPL 181200Z 25011KT 9999 FEW035 30/18 Q1013 NOSIG
LIVD - Dobbiaco, Italy
Distance from station: NO 138km
Dati ricevuti: 18/07/2018 11:55

 
2018/07/18 11:55 LIVD 181155Z ///02KT 9999 BKN030 22/02 Q1021 RMK BKN VIS MIN 9999
 
LIPU - Padova (civ/It-A, Italy
Distance from station: OSO 139km
Dati ricevuti: 17/07/2018 06:00
DATI Obsoleti
Parz. nuvoloso
Parz. nuvoloso
 Vento da Variabile
Vento: Variabile 6 km/h
Temperatura: 21°C
P.to Rugiada: 20°C
Umidità: 94%
Barometro: 1011 hPa
Nuvole: Parz. nuvoloso
Visibility: 8 km
2018/07/17 06:00 LIPU 170600Z VRB03KT 8000 NSC 21/20 Q1011
LIVR - Rolle Pass, Italy
Distance from station: ONO 142km
Dati ricevuti: 18/07/2018 08:55
DATI Obsoleti
Parz. nuvoloso
Parz. nuvoloso
 Vento da NO
Vento: NO 15 km/h
Temperatura: 13°C
P.to Rugiada: -1°C
Umidità: 38%
Barometro: 1023 hPa
Nuvole: Parz. nuvoloso
Visibility: 10 km
Cloud details: Parz. nuvoloso 610 m
2018/07/18 08:55 LIVR 180855Z 31008KT 9999 SCT020 13/M01 Q1023 RMK BKN MON LIB VIS MIN 9999
 
LJCE - Cerklje, Slovenia
Distance from station: E 157km
Dati ricevuti: 18/07/2018 12:00
Sereno
Sereno
 Vento da OSO
Vento: OSO 11 km/h
Temperatura: 29°C
Indice di Calore: 29°C
P.to Rugiada: 17°C
Umidità: 48%
Barometro: 1012 hPa
Summary: Sereno
Visibility: superiore a 10 km
2018/07/18 12:00 LJCE 181200Z 25006KT 210V300 CAVOK 29/17 Q1012
LDLO - Losinj Island, Croatia
Distance from station: SSE 159km
Dati ricevuti: 15/07/2018 18:00
DATI Obsoleti
Sereno
Sereno
 Vento da ONO
Vento: ONO 9 km/h
Temperatura: 27°C
Indice di Calore: 28°C
P.to Rugiada: 19°C
Umidità: 62%
Barometro: 1012 hPa
Summary: Sereno
Visibility: superiore a 10 km
2018/07/15 18:00 LDLO 151800Z 30005KT CAVOK 27/19 Q1012
 
LOXZ - Zeltweg (mil), Austria
Distance from station: NNE 179km
Dati ricevuti: 18/07/2018 11:50
Parz. nuvoloso
Parz. nuvoloso
 Vento da ONO
Vento: ONO 20 km/h
Temperatura: 24°C
P.to Rugiada: 7°C
Umidità: 34%
Barometro: 1016 hPa
Nuvole: Parz. nuvoloso
Cloud details: Few Clouds 1829 m
Parz. nuvoloso 2286 m
2018/07/18 11:50 LOXZ 181150Z 29011KT 40KM FEW060CU SCT075SC 24/07 Q1016 NOSIG
LIPB - Bolzano(Civ/It-A, Italy
Distance from station: ONO 181km
Dati ricevuti: 18/07/2018 11:50
Few Clouds
Few Clouds
 Vento da calmo
Vento: Calma
Temperatura: 31°C
P.to Rugiada: 9°C
Umidità: 25%
Barometro: 1013 hPa
Nuvole: Few Clouds
Visibility: 10 km
Cloud details: Few Clouds 2438 m
2018/07/18 11:50 LIPB 181150Z 00000KT 9999 FEW080 31/09 Q1013